Latest Weather Observations for Minnipa RS

IDS60801

Issued at 10:31 pm CDT Monday 8 February 2016 (issued every 30 minutes, with the page automatically refreshed every 10 minutes)

About weather observations | Map of weather stations | Latest weather observations for SA | Other Formats
Station Details ID: 018195 Name: MINNIPA PIRSA Lat: -32.84 Lon: 135.15 Height: 165.0 m
Data from the previous 72 hours. | See also: Recent months at Minnipa RS
Date/Time
CDT
Temp
°C
App
Temp
°C
Dew
Point
Rel
Hum
%
Delta-T
°C
Wind Press
QNH
hPa
Press
MSL
hPa
Rain
since 9 am
mm
Dir
 
Spd
km/h
Gust
km/h
Spd
kts
Gust
kts
08/10:30pm 19.8 16.5 12.8 64 4.0 SE 22 30 12 16 1021.3 - 0.0
08/10:00pm 20.8 16.5 12.0 57 4.9 SE 26 33 14 18 1021.0 - 0.0
08/09:30pm 21.9 17.6 10.7 49 6.2 SE 24 30 13 16 1020.7 - 0.0
08/09:00pm 23.1 18.9 9.8 43 7.3 SE 22 32 12 17 1020.5 1019.8 0.0
08/08:30pm 24.6 19.9 9.3 38 8.4 SE 24 33 13 18 1020.1 - 0.0
08/08:00pm 26.4 21.1 8.4 32 9.8 SE 26 35 14 19 1019.8 - 0.0
08/07:30pm 28.1 23.1 7.9 28 11.0 SE 24 35 13 19 1019.4 - 0.0
08/07:00pm 29.3 23.7 7.2 25 12.0 SE 26 35 14 19 1019.1 - 0.0
08/06:30pm 30.1 24.3 6.1 22 12.8 SE 26 37 14 20 1019.0 - 0.0
08/06:00pm 30.8 24.9 6.0 21 13.2 SE 26 33 14 18 1019.0 1018.2 0.0
08/05:30pm 31.1 25.5 5.5 20 13.6 SSE 24 37 13 20 1019.0 - 0.0
08/05:00pm 31.4 25.7 5.0 19 13.9 SSE 24 32 13 17 1019.2 - 0.0
08/04:30pm 31.9 26.7 5.4 19 14.1 SSE 22 32 12 17 1019.4 - 0.0
08/04:00pm 31.6 27.1 5.9 20 13.8 SE 19 32 10 17 1019.6 - 0.0
08/03:30pm 31.4 26.6 5.8 20 13.7 S 20 28 11 15 1020.0 - 0.0
08/03:00pm 30.9 25.9 4.6 19 13.7 SSE 20 39 11 21 1020.3 1019.6 0.0
08/02:30pm 30.5 25.8 7.7 24 12.5 SSE 22 33 12 18 1020.7 - 0.0
08/02:00pm 28.9 24.0 6.9 25 11.8 SSE 22 32 12 17 1021.1 - 0.0
08/01:30pm 28.3 23.2 7.5 27 11.3 SE 24 39 13 21 1021.4 - 0.0
08/01:00pm 26.9 22.0 8.4 31 10.1 SSE 24 37 13 20 1021.8 - 0.0
08/12:30pm 26.8 22.1 9.2 33 9.7 SSE 24 32 13 17 1022.0 - 0.0
08/12:00pm 25.1 20.6 10.2 39 8.3 SSE 24 32 13 17 1022.4 1021.7 0.0
08/11:30am 23.9 19.3 10.9 44 7.3 SSE 26 35 14 19 1022.6 - 0.0
08/11:00am 22.6 18.0 11.0 48 6.5 SE 26 37 14 20 1022.7 - 0.0
08/10:30am 21.4 17.0 11.7 54 5.5 SE 26 35 14 19 1022.8 - 0.0
08/10:00am 20.6 16.3 13.1 62 4.3 SE 28 37 15 20 1022.8 - 0.0
08/09:30am 18.9 14.0 12.6 67 3.6 SE 30 37 16 20 1023.0 - 0.0
08/09:00am 18.0 14.0 13.1 73 2.8 SE 26 35 14 19 1022.8 1022.1 0.0
08/08:30am 16.2 13.0 13.1 82 1.7 SE 22 32 12 17 1022.6 - 0.0
08/08:00am 14.9 12.2 13.4 91 0.8 SE 20 28 11 15 1022.3 - 0.0
08/07:30am 14.1 11.8 13.0 93 0.6 SE 17 20 9 11 1022.1 - 0.0
08/07:00am 14.1 12.6 13.0 93 0.6 SE 13 19 7 10 1021.9 - 0.0
08/06:30am 14.8 12.3 13.5 92 0.7 SE 19 24 10 13 1021.6 - 0.0
08/06:00am 15.0 12.3 13.5 91 0.8 SE 20 24 11 13 1021.5 1020.8 0.0
08/05:30am 15.4 12.7 13.6 89 1.0 SE 20 28 11 15 1021.2 - 0.0
08/05:00am 16.0 13.1 14.0 88 1.1 SE 22 30 12 16 1020.9 - 0.0
08/04:30am 16.7 13.9 14.3 86 1.4 SE 22 30 12 16 1020.8 - 0.0
08/04:00am 16.6 13.8 14.4 87 1.3 SE 22 30 12 16 1021.0 - 0.0
08/03:30am 16.7 14.4 14.2 85 1.4 SE 19 24 10 13 1021.1 - 0.0
08/03:00am 16.6 13.7 14.1 85 1.4 SE 22 32 12 17 1021.1 1020.4 0.0
08/02:30am 16.6 13.7 13.9 84 1.5 SE 22 30 12 16 1021.3 - 0.0
08/02:00am 16.0 13.7 12.9 82 1.7 SE 17 20 9 11 1021.4 - 0.0
08/01:30am 16.1 13.2 12.8 81 1.8 SE 20 28 11 15 1021.6 - 0.0
08/01:00am 16.5 13.5 12.5 77 2.2 SE 20 26 11 14 1021.7 - 0.0
08/12:30am 16.2 14.0 12.0 76 2.3 SSE 15 20 8 11 1021.8 - 0.0
08/12:00am 16.5 15.0 11.9 74 2.5 SSE 11 19 6 10 1021.8 1021.1 0.0
 
Date/Time
CDT
Temp
°C
App
Temp
°C
Dew
Point
Rel
Hum
%
Delta-T
°C
Wind Press
QNH
hPa
Press
MSL
hPa
Rain
since 9 am
mm
Dir
 
Spd
km/h
Gust
km/h
Spd
kts
Gust
kts
07/11:30pm 17.1 14.9 12.0 72 2.8 SSE 15 20 8 11 1021.5 - 0.0
07/11:00pm 17.4 15.5 11.9 70 3.0 S 13 19 7 10 1021.5 - 0.0
07/10:30pm 17.9 15.2 11.7 67 3.4 S 17 22 9 12 1021.2 - 0.0
07/10:00pm 18.6 15.3 11.7 64 3.8 S 20 28 11 15 1020.9 - 0.0
07/09:30pm 19.4 16.2 11.4 60 4.4 S 19 24 10 13 1020.5 - 0.0
07/09:00pm 20.4 16.6 11.1 55 5.1 S 22 28 12 15 1020.2 1019.5 0.0
07/08:30pm 22.1 18.4 10.3 47 6.5 S 20 26 11 14 1019.9 - 0.0
07/08:00pm 24.4 19.1 8.4 36 8.6 S 26 33 14 18 1019.4 - 0.0
07/07:30pm 26.0 20.8 7.1 30 10.0 SSW 24 35 13 19 1018.9 - 0.0
07/07:00pm 27.7 22.1 5.3 24 11.6 SSW 24 32 13 17 1018.5 - 0.0
07/06:30pm 29.0 23.0 5.1 22 12.5 SSW 26 35 14 19 1018.0 - 0.0
07/06:00pm 30.0 24.1 6.0 22 12.8 SSW 26 37 14 20 1017.8 1017.0 0.0
07/05:30pm 31.3 25.6 4.9 19 13.9 S 24 32 13 17 1017.6 - 0.0
07/05:00pm 31.5 26.0 5.8 20 13.8 SSW 24 35 13 19 1017.3 - 0.0
07/04:30pm 32.7 28.2 6.1 19 14.4 SSW 19 26 10 14 1017.5 - 0.0
07/04:00pm 31.9 27.6 5.4 19 14.1 S 17 24 9 13 1017.6 - 0.0
07/03:30pm 31.9 27.5 7.5 22 13.5 S 20 28 11 15 1017.9 - 0.0
07/03:00pm 31.2 27.2 8.2 24 12.8 S 19 28 10 15 1018.1 1017.3 0.0
07/02:30pm 30.3 26.3 9.2 27 11.9 SSW 20 26 11 14 1018.2 - 0.0
07/02:00pm 29.8 26.2 9.9 29 11.3 S 19 26 10 14 1018.6 - 0.0
07/01:30pm 28.5 25.4 10.2 32 10.4 S 17 24 9 13 1018.8 - 0.0
07/01:00pm 27.3 23.9 10.5 35 9.5 S 19 24 10 13 1019.0 - 0.0
07/12:30pm 26.1 23.4 11.8 41 8.2 SSE 17 22 9 12 1019.2 - 0.0
07/12:00pm 25.6 23.2 12.8 45 7.5 SSE 17 22 9 12 1019.3 1018.5 0.0
07/11:30am 24.7 22.4 14.2 52 6.3 SSE 19 24 10 13 1019.5 - 0.0
07/11:00am 22.3 21.0 14.7 62 4.5 SSE 15 26 8 14 1019.6 - 0.0
07/10:30am 20.8 18.7 14.7 68 3.6 S 19 22 10 12 1019.7 - 0.0
07/10:00am 18.7 17.0 14.8 78 2.3 SE 17 20 9 11 1019.7 - 0.0
07/09:30am 17.1 15.9 15.1 88 1.2 SSE 15 20 8 11 1019.8 - 0.0
07/09:00am 15.9 14.3 14.9 94 0.6 SSE 17 20 9 11 1019.8 1019.1 0.0
07/08:30am 15.3 13.4 14.3 94 0.6 SSE 17 20 9 11 1019.5 - 0.0
07/08:00am 15.0 13.0 14.0 94 0.6 SSE 17 20 9 11 1019.3 - 0.0
07/07:30am 14.8 12.8 13.8 94 0.6 SSE 17 20 9 11 1019.0 - 0.0
07/07:00am 14.7 12.3 13.7 94 0.6 SSE 19 24 10 13 1018.7 - 0.0
07/06:30am 14.6 12.5 13.6 94 0.6 S 17 24 9 13 1018.4 - 0.0
07/06:00am 14.4 11.8 13.3 93 0.6 S 19 22 10 12 1018.0 1017.2 0.0
07/05:30am 14.0 10.7 12.9 93 0.6 SSE 22 26 12 14 1017.6 - 0.0
07/05:00am 14.0 11.6 12.7 92 0.7 S 17 20 9 11 1017.2 - 0.0
07/04:30am 14.1 12.0 12.5 90 0.9 SSE 15 20 8 11 1016.9 - 0.0
07/04:00am 14.2 12.5 12.4 89 1.0 SSE 13 17 7 9 1016.8 - 0.0
07/03:30am 14.6 12.6 12.6 88 1.1 SE 15 19 8 10 1016.5 - 0.0
07/03:00am 14.5 12.5 12.7 89 1.0 ESE 15 19 8 10 1016.4 1015.7 0.0
07/02:30am 14.7 13.5 12.9 89 1.0 SE 11 17 6 9 1016.7 - 0.0
07/02:00am 15.0 13.1 13.0 88 1.1 SSE 15 19 8 10 1016.9 - 0.0
07/01:30am 15.4 13.9 13.1 86 1.3 SSE 13 17 7 9 1017.5 - 0.0
07/01:00am 15.8 14.0 13.3 85 1.4 S 15 20 8 11 1017.8 - 0.0
07/12:30am 15.9 14.8 13.2 84 1.5 SSE 11 17 6 9 1017.7 - 0.0
07/12:00am 16.1 14.3 13.2 83 1.6 S 15 17 8 9 1017.7 1016.9 0.0
 
Date/Time
CDT
Temp
°C
App
Temp
°C
Dew
Point
Rel
Hum
%
Delta-T
°C
Wind Press
QNH
hPa
Press
MSL
hPa
Rain
since 9 am
mm
Dir
 
Spd
km/h
Gust
km/h
Spd
kts
Gust
kts
06/11:30pm 16.5 14.3 13.2 81 1.9 S 17 20 9 11 1017.8 - 0.0
06/11:00pm 16.9 14.2 13.0 78 2.2 S 19 28 10 15 1017.8 - 0.0
06/10:30pm 17.6 14.7 12.9 74 2.6 S 20 28 11 15 1017.3 - 0.0
06/10:00pm 18.4 15.6 12.6 69 3.3 S 19 24 10 13 1016.7 - 0.0
06/09:30pm 19.7 15.8 12.0 61 4.3 S 24 30 13 16 1016.6 - 0.0
06/09:00pm 21.2 17.2 11.8 55 5.3 SSW 24 32 13 17 1016.3 1015.6 0.0
06/08:30pm 22.8 19.2 10.6 46 6.8 SSW 20 28 11 15 1015.8 - 0.0
06/08:00pm 24.4 20.5 10.7 42 7.7 SSW 22 32 12 17 1015.3 - 0.0
06/07:30pm 25.6 20.5 10.6 39 8.4 SSW 28 35 15 19 1015.0 - 0.0
06/07:00pm 27.2 22.2 10.8 36 9.3 SSW 28 37 15 20 1014.6 - 0.0
06/06:30pm 28.6 23.6 10.8 33 10.2 SSW 28 37 15 20 1014.4 - 0.0
06/06:00pm 29.5 24.3 10.1 30 11.0 SSW 28 35 15 19 1014.4 1013.7 0.0
06/05:30pm 29.7 24.8 9.8 29 11.3 SSW 26 37 14 20 1014.4 - 0.0
06/05:00pm 30.6 26.1 10.0 28 11.8 SSW 24 33 13 18 1014.3 - 0.0
06/04:30pm 30.6 25.9 10.5 29 11.6 SSW 26 32 14 17 1014.3 - 0.0
06/04:00pm 30.9 27.7 11.8 31 11.2 SW 20 28 11 15 1014.4 - 0.0
06/03:30pm 30.9 26.4 11.3 30 11.4 SSW 26 35 14 19 1014.5 - 0.0
06/03:00pm 31.4 27.2 11.2 29 11.8 SSW 24 30 13 16 1014.6 1013.9 0.0
06/02:30pm 31.1 26.9 11.0 29 11.7 SSW 24 30 13 16 1014.9 - 0.0
06/02:00pm 29.9 27.9 11.4 32 10.8 S 13 20 7 11 1015.2 - 0.0
06/01:30pm 28.9 26.5 11.5 34 10.1 S 15 26 8 14 1015.4 - 0.0
06/01:00pm 28.6 26.7 12.9 38 9.3 S 15 24 8 13 1015.8 - 0.0
06/12:30pm 27.1 24.9 13.4 42 8.1 S 17 24 9 13 1016.1 - 0.0
06/12:00pm 25.4 23.4 13.9 49 6.8 S 17 28 9 15 1016.3 1015.6 0.0
06/11:30am 24.3 22.5 14.4 54 5.9 SSE 17 24 9 13 1016.5 - 0.0
06/11:00am 22.4 20.9 14.3 60 4.8 SSE 15 20 8 11 1016.6 - 0.0
06/10:30am 21.3 20.2 14.2 64 4.2 SE 13 22 7 12 1016.6 - 0.0
06/10:00am 19.9 18.1 14.5 71 3.2 SE 17 22 9 12 1016.7 - 0.0
06/09:30am 17.7 15.5 14.4 81 1.9 SE 19 24 10 13 1016.8 - 0.0
06/09:00am 16.1 13.8 14.6 91 0.9 SE 20 26 11 14 1016.6 1015.9 0.0
06/08:30am 15.2 12.7 14.2 94 0.6 SE 20 28 11 15 1016.4 - 0.0
06/08:00am 14.6 11.9 13.6 94 0.6 SSE 20 28 11 15 1016.3 - 0.0
06/07:30am 14.4 11.3 13.4 94 0.6 SSE 22 30 12 16 1016.2 - 0.0
06/07:00am 14.1 10.9 13.0 93 0.6 SSE 22 30 12 16 1015.8 - 0.0
06/06:30am 13.8 11.0 12.7 93 0.6 SSE 19 24 10 13 1015.4 - 0.0
06/06:00am 13.4 10.9 12.3 93 0.6 S 17 22 9 12 1015.1 1014.4 0.0
06/05:30am 13.4 10.4 12.1 92 0.7 SSE 19 22 10 12 1014.9 - 0.0
06/05:00am 12.9 10.5 11.5 91 0.7 S 15 19 8 10 1014.9 - 0.0
06/04:30am 12.9 10.5 11.3 90 0.9 SSE 15 17 8 9 1014.6 - 0.0
06/04:00am 13.1 10.6 11.2 88 1.0 SSE 15 19 8 10 1014.8 - 0.0
06/03:30am 13.3 10.5 11.2 87 1.1 SSE 17 20 9 11 1015.1 - 0.0
06/03:00am 13.9 11.5 11.4 85 1.3 SSE 15 17 8 9 1015.6 1014.9 0.0
06/02:30am 14.1 11.3 11.4 84 1.5 SE 17 20 9 11 1015.8 - 0.0
06/02:00am 14.8 12.1 11.8 82 1.6 SE 17 22 9 12 1016.2 - 0.0
06/01:30am 15.1 12.4 11.7 80 1.8 SSE 17 20 9 11 1016.5 - 0.0
06/01:00am 15.7 12.6 11.7 77 2.2 SSE 19 24 10 13 1016.8 - 0.0
06/12:30am 16.3 13.7 11.9 75 2.4 SE 17 22 9 12 1016.8 - 0.0
06/12:00am 17.1 14.1 12.0 72 2.8 SSE 19 26 10 14 1016.9 1016.2 0.0
 
Date/Time
CDT
Temp
°C
App
Temp
°C
Dew
Point
Rel
Hum
%
Delta-T
°C
Wind Press
QNH
hPa
Press
MSL
hPa
Rain
since 9 am
mm
Dir
 
Spd
km/h
Gust
km/h
Spd
kts
Gust
kts
05/11:30pm 17.7 14.1 11.9 69 3.2 SE 22 28 12 15 1017.0 - 0.0
05/11:00pm 18.4 15.1 11.5 64 3.8 SE 20 28 11 15 1017.1 - 0.0

Other Formats:

Comma delimited format used in spreadsheet applications
http://www.bom.gov.au/fwo/IDS60801/IDS60801.95662.axf

JavaScript Object Notation format (JSON) in row-major order
http://www.bom.gov.au/fwo/IDS60801/IDS60801.95662.json